sensor_id;sensor_type;location;lat;lon;timestamp;P1;durP1;ratioP1;P2;durP2;ratioP2
55288;SDS011;41154;45.394;5.734;2024-03-22T00:00:11;5.32;;;2.92;;
55288;SDS011;41154;45.394;5.734;2024-03-22T00:02:40;5.47;;;3.28;;
55288;SDS011;41154;45.394;5.734;2024-03-22T00:05:05;5.97;;;2.67;;
55288;SDS011;41154;45.394;5.734;2024-03-22T00:07:31;12.00;;;3.20;;
55288;SDS011;41154;45.394;5.734;2024-03-22T00:09:56;6.28;;;3.45;;
55288;SDS011;41154;45.394;5.734;2024-03-22T00:12:22;17.05;;;4.43;;
55288;SDS011;41154;45.394;5.734;2024-03-22T00:14:47;9.98;;;3.67;;
55288;SDS011;41154;45.394;5.734;2024-03-22T00:17:13;6.38;;;3.33;;
55288;SDS011;41154;45.394;5.734;2024-03-22T00:19:39;4.63;;;3.50;;
55288;SDS011;41154;45.394;5.734;2024-03-22T00:22:04;10.15;;;3.70;;
55288;SDS011;41154;45.394;5.734;2024-03-22T00:24:30;11.50;;;3.72;;
55288;SDS011;41154;45.394;5.734;2024-03-22T00:26:56;9.98;;;3.67;;
55288;SDS011;41154;45.394;5.734;2024-03-22T00:29:21;6.78;;;3.35;;
55288;SDS011;41154;45.394;5.734;2024-03-22T00:31:48;8.45;;;3.70;;
55288;SDS011;41154;45.394;5.734;2024-03-22T00:34:13;6.57;;;3.10;;
55288;SDS011;41154;45.394;5.734;2024-03-22T00:36:39;8.05;;;3.40;;
55288;SDS011;41154;45.394;5.734;2024-03-22T00:39:04;8.00;;;3.35;;
55288;SDS011;41154;45.394;5.734;2024-03-22T00:41:30;5.05;;;2.80;;
55288;SDS011;41154;45.394;5.734;2024-03-22T00:43:57;12.13;;;5.03;;
55288;SDS011;41154;45.394;5.734;2024-03-22T00:46:22;12.50;;;5.50;;
55288;SDS011;41154;45.394;5.734;2024-03-22T00:48:48;9.20;;;3.80;;
55288;SDS011;41154;45.394;5.734;2024-03-22T00:51:13;4.55;;;2.63;;
55288;SDS011;41154;45.394;5.734;2024-03-22T00:53:38;6.22;;;3.00;;
55288;SDS011;41154;45.394;5.734;2024-03-22T00:56:04;4.30;;;2.83;;
55288;SDS011;41154;45.394;5.734;2024-03-22T00:58:30;4.70;;;3.15;;
55288;SDS011;41154;45.394;5.734;2024-03-22T01:00:55;9.95;;;3.55;;
55288;SDS011;41154;45.394;5.734;2024-03-22T01:03:21;5.97;;;3.30;;
55288;SDS011;41154;45.394;5.734;2024-03-22T01:05:47;8.23;;;3.58;;
55288;SDS011;41154;45.394;5.734;2024-03-22T01:08:12;9.27;;;3.60;;
55288;SDS011;41154;45.394;5.734;2024-03-22T01:10:38;9.63;;;3.42;;
55288;SDS011;41154;45.394;5.734;2024-03-22T01:13:03;12.25;;;4.55;;
55288;SDS011;41154;45.394;5.734;2024-03-22T01:15:29;6.60;;;3.88;;
55288;SDS011;41154;45.394;5.734;2024-03-22T01:17:55;5.80;;;3.67;;
55288;SDS011;41154;45.394;5.734;2024-03-22T01:20:20;9.93;;;3.90;;
55288;SDS011;41154;45.394;5.734;2024-03-22T01:22:46;5.70;;;3.63;;
55288;SDS011;41154;45.394;5.734;2024-03-22T01:25:11;6.18;;;4.00;;
55288;SDS011;41154;45.394;5.734;2024-03-22T01:27:37;7.25;;;3.40;;
55288;SDS011;41154;45.394;5.734;2024-03-22T01:30:02;5.18;;;3.65;;
55288;SDS011;41154;45.394;5.734;2024-03-22T01:32:28;5.53;;;3.47;;
55288;SDS011;41154;45.394;5.734;2024-03-22T01:34:53;6.85;;;3.28;;
55288;SDS011;41154;45.394;5.734;2024-03-22T01:37:19;9.20;;;3.75;;
55288;SDS011;41154;45.394;5.734;2024-03-22T01:39:44;7.20;;;3.47;;
55288;SDS011;41154;45.394;5.734;2024-03-22T01:42:10;4.97;;;3.50;;
55288;SDS011;41154;45.394;5.734;2024-03-22T01:44:35;6.68;;;3.38;;
55288;SDS011;41154;45.394;5.734;2024-03-22T01:47:01;6.78;;;3.38;;
55288;SDS011;41154;45.394;5.734;2024-03-22T01:49:27;7.32;;;4.75;;
55288;SDS011;41154;45.394;5.734;2024-03-22T01:51:53;8.20;;;4.65;;
55288;SDS011;41154;45.394;5.734;2024-03-22T01:54:19;9.50;;;5.18;;
55288;SDS011;41154;45.394;5.734;2024-03-22T01:56:44;7.05;;;3.90;;
55288;SDS011;41154;45.394;5.734;2024-03-22T01:59:11;6.20;;;4.20;;
55288;SDS011;41154;45.394;5.734;2024-03-22T02:01:37;7.05;;;4.60;;
55288;SDS011;41154;45.394;5.734;2024-03-22T02:04:02;9.05;;;4.00;;
55288;SDS011;41154;45.394;5.734;2024-03-22T02:06:28;8.10;;;4.40;;
55288;SDS011;41154;45.394;5.734;2024-03-22T02:08:53;6.20;;;3.72;;
55288;SDS011;41154;45.394;5.734;2024-03-22T02:11:21;7.43;;;3.55;;
55288;SDS011;41154;45.394;5.734;2024-03-22T02:13:46;9.30;;;3.83;;
55288;SDS011;41154;45.394;5.734;2024-03-22T02:16:12;7.88;;;3.47;;
55288;SDS011;41154;45.394;5.734;2024-03-22T02:18:37;9.02;;;3.80;;
55288;SDS011;41154;45.394;5.734;2024-03-22T02:21:03;7.15;;;3.28;;
55288;SDS011;41154;45.394;5.734;2024-03-22T02:23:38;4.28;;;3.38;;
55288;SDS011;41154;45.394;5.734;2024-03-22T02:26:04;5.72;;;3.70;;
55288;SDS011;41154;45.394;5.734;2024-03-22T02:28:30;4.85;;;3.30;;
55288;SDS011;41154;45.394;5.734;2024-03-22T02:30:57;8.23;;;3.70;;
55288;SDS011;41154;45.394;5.734;2024-03-22T02:33:22;6.82;;;3.40;;
55288;SDS011;41154;45.394;5.734;2024-03-22T02:35:48;6.25;;;3.70;;
55288;SDS011;41154;45.394;5.734;2024-03-22T02:38:14;6.70;;;3.88;;
55288;SDS011;41154;45.394;5.734;2024-03-22T02:40:42;6.57;;;3.30;;
55288;SDS011;41154;45.394;5.734;2024-03-22T02:43:08;7.22;;;3.80;;
55288;SDS011;41154;45.394;5.734;2024-03-22T02:45:33;7.38;;;3.50;;
55288;SDS011;41154;45.394;5.734;2024-03-22T02:47:59;5.45;;;3.65;;
55288;SDS011;41154;45.394;5.734;2024-03-22T02:50:24;7.90;;;4.03;;
55288;SDS011;41154;45.394;5.734;2024-03-22T02:52:50;6.72;;;3.53;;
55288;SDS011;41154;45.394;5.734;2024-03-22T02:55:15;10.05;;;3.55;;
55288;SDS011;41154;45.394;5.734;2024-03-22T02:57:41;6.70;;;3.40;;
55288;SDS011;41154;45.394;5.734;2024-03-22T03:00:06;7.57;;;3.40;;
55288;SDS011;41154;45.394;5.734;2024-03-22T03:02:32;5.07;;;3.45;;
55288;SDS011;41154;45.394;5.734;2024-03-22T03:04:58;8.73;;;3.30;;
55288;SDS011;41154;45.394;5.734;2024-03-22T03:07:24;5.75;;;3.45;;
55288;SDS011;41154;45.394;5.734;2024-03-22T03:09:50;7.03;;;3.75;;
55288;SDS011;41154;45.394;5.734;2024-03-22T03:12:16;6.65;;;4.15;;
55288;SDS011;41154;45.394;5.734;2024-03-22T03:14:41;5.53;;;3.33;;
55288;SDS011;41154;45.394;5.734;2024-03-22T03:17:07;6.20;;;3.72;;
55288;SDS011;41154;45.394;5.734;2024-03-22T03:19:33;6.97;;;4.10;;
55288;SDS011;41154;45.394;5.734;2024-03-22T03:21:58;4.78;;;3.50;;
55288;SDS011;41154;45.394;5.734;2024-03-22T03:24:24;6.47;;;3.75;;
55288;SDS011;41154;45.394;5.734;2024-03-22T03:26:50;8.25;;;3.60;;
55288;SDS011;41154;45.394;5.734;2024-03-22T03:29:15;8.48;;;3.90;;
55288;SDS011;41154;45.394;5.734;2024-03-22T03:31:41;5.72;;;3.20;;
55288;SDS011;41154;45.394;5.734;2024-03-22T03:34:06;7.50;;;3.25;;
55288;SDS011;41154;45.394;5.734;2024-03-22T03:36:32;7.78;;;3.53;;
55288;SDS011;41154;45.394;5.734;2024-03-22T03:38:57;6.15;;;3.25;;
55288;SDS011;41154;45.394;5.734;2024-03-22T03:41:22;10.18;;;4.03;;
55288;SDS011;41154;45.394;5.734;2024-03-22T03:43:48;7.95;;;3.55;;
55288;SDS011;41154;45.394;5.734;2024-03-22T03:46:13;6.82;;;3.83;;
55288;SDS011;41154;45.394;5.734;2024-03-22T03:48:39;4.88;;;3.30;;
55288;SDS011;41154;45.394;5.734;2024-03-22T03:51:05;6.85;;;3.28;;
55288;SDS011;41154;45.394;5.734;2024-03-22T03:53:30;7.53;;;3.28;;
55288;SDS011;41154;45.394;5.734;2024-03-22T03:55:56;6.13;;;3.30;;
55288;SDS011;41154;45.394;5.734;2024-03-22T03:58:21;8.35;;;3.97;;
55288;SDS011;41154;45.394;5.734;2024-03-22T04:00:47;5.80;;;3.35;;
55288;SDS011;41154;45.394;5.734;2024-03-22T04:03:13;4.13;;;3.20;;
55288;SDS011;41154;45.394;5.734;2024-03-22T04:05:38;5.60;;;3.30;;
55288;SDS011;41154;45.394;5.734;2024-03-22T04:08:04;5.50;;;3.65;;
55288;SDS011;41154;45.394;5.734;2024-03-22T04:10:30;5.03;;;3.22;;
55288;SDS011;41154;45.394;5.734;2024-03-22T04:12:55;4.53;;;3.10;;
55288;SDS011;41154;45.394;5.734;2024-03-22T04:15:21;6.28;;;3.38;;
55288;SDS011;41154;45.394;5.734;2024-03-22T04:17:47;4.97;;;3.42;;
55288;SDS011;41154;45.394;5.734;2024-03-22T04:20:12;6.93;;;3.70;;
55288;SDS011;41154;45.394;5.734;2024-03-22T04:22:38;4.78;;;3.58;;
55288;SDS011;41154;45.394;5.734;2024-03-22T04:25:03;7.68;;;3.00;;
55288;SDS011;41154;45.394;5.734;2024-03-22T04:27:29;5.65;;;3.47;;
55288;SDS011;41154;45.394;5.734;2024-03-22T04:29:54;4.38;;;3.00;;
55288;SDS011;41154;45.394;5.734;2024-03-22T04:32:20;8.00;;;3.75;;
55288;SDS011;41154;45.394;5.734;2024-03-22T04:34:46;7.05;;;2.92;;
55288;SDS011;41154;45.394;5.734;2024-03-22T04:37:11;5.38;;;3.45;;
55288;SDS011;41154;45.394;5.734;2024-03-22T04:39:37;4.57;;;3.10;;
55288;SDS011;41154;45.394;5.734;2024-03-22T04:42:03;7.78;;;3.45;;
55288;SDS011;41154;45.394;5.734;2024-03-22T04:44:29;8.25;;;3.45;;
55288;SDS011;41154;45.394;5.734;2024-03-22T04:46:54;10.65;;;3.97;;
55288;SDS011;41154;45.394;5.734;2024-03-22T04:49:20;5.93;;;3.10;;
55288;SDS011;41154;45.394;5.734;2024-03-22T04:51:45;5.97;;;3.10;;
55288;SDS011;41154;45.394;5.734;2024-03-22T04:54:11;5.88;;;3.50;;
55288;SDS011;41154;45.394;5.734;2024-03-22T04:56:36;5.30;;;3.35;;
55288;SDS011;41154;45.394;5.734;2024-03-22T04:59:02;7.30;;;4.07;;
55288;SDS011;41154;45.394;5.734;2024-03-22T05:01:27;4.85;;;3.55;;
55288;SDS011;41154;45.394;5.734;2024-03-22T05:03:53;6.32;;;3.38;;
55288;SDS011;41154;45.394;5.734;2024-03-22T05:06:20;4.82;;;3.08;;
55288;SDS011;41154;45.394;5.734;2024-03-22T05:08:45;5.75;;;3.25;;
55288;SDS011;41154;45.394;5.734;2024-03-22T05:11:11;5.90;;;3.13;;
55288;SDS011;41154;45.394;5.734;2024-03-22T05:13:36;6.65;;;3.28;;
55288;SDS011;41154;45.394;5.734;2024-03-22T05:16:01;5.95;;;3.22;;
55288;SDS011;41154;45.394;5.734;2024-03-22T05:18:27;5.20;;;3.40;;
55288;SDS011;41154;45.394;5.734;2024-03-22T05:20:52;7.70;;;3.78;;
55288;SDS011;41154;45.394;5.734;2024-03-22T05:23:18;6.07;;;3.72;;
55288;SDS011;41154;45.394;5.734;2024-03-22T05:25:44;5.78;;;3.70;;
55288;SDS011;41154;45.394;5.734;2024-03-22T05:28:09;5.68;;;3.88;;
55288;SDS011;41154;45.394;5.734;2024-03-22T05:30:35;6.15;;;3.65;;
55288;SDS011;41154;45.394;5.734;2024-03-22T05:33:01;11.85;;;3.40;;
55288;SDS011;41154;45.394;5.734;2024-03-22T05:35:27;5.47;;;3.45;;
55288;SDS011;41154;45.394;5.734;2024-03-22T05:37:52;5.05;;;3.22;;
55288;SDS011;41154;45.394;5.734;2024-03-22T05:40:18;8.15;;;4.10;;
55288;SDS011;41154;45.394;5.734;2024-03-22T05:42:43;8.32;;;4.60;;
55288;SDS011;41154;45.394;5.734;2024-03-22T05:45:09;4.70;;;3.38;;
55288;SDS011;41154;45.394;5.734;2024-03-22T05:47:35;5.82;;;3.42;;
55288;SDS011;41154;45.394;5.734;2024-03-22T05:50:02;4.95;;;3.60;;
55288;SDS011;41154;45.394;5.734;2024-03-22T05:52:29;5.75;;;3.50;;
55288;SDS011;41154;45.394;5.734;2024-03-22T05:54:54;6.70;;;3.45;;
55288;SDS011;41154;45.394;5.734;2024-03-22T05:57:21;5.82;;;3.53;;
55288;SDS011;41154;45.394;5.734;2024-03-22T05:59:46;6.07;;;3.08;;
55288;SDS011;41154;45.394;5.734;2024-03-22T06:02:14;7.10;;;3.35;;
55288;SDS011;41154;45.394;5.734;2024-03-22T06:04:40;4.53;;;3.20;;
55288;SDS011;41154;45.394;5.734;2024-03-22T06:07:06;6.38;;;3.70;;
55288;SDS011;41154;45.394;5.734;2024-03-22T06:09:32;5.75;;;3.65;;
55288;SDS011;41154;45.394;5.734;2024-03-22T06:12:05;5.45;;;3.25;;
55288;SDS011;41154;45.394;5.734;2024-03-22T06:14:31;9.63;;;3.67;;
55288;SDS011;41154;45.394;5.734;2024-03-22T06:16:57;9.50;;;3.85;;
55288;SDS011;41154;45.394;5.734;2024-03-22T06:19:23;6.85;;;3.40;;
55288;SDS011;41154;45.394;5.734;2024-03-22T06:21:48;8.50;;;4.07;;
55288;SDS011;41154;45.394;5.734;2024-03-22T06:24:14;7.07;;;3.88;;
55288;SDS011;41154;45.394;5.734;2024-03-22T06:26:39;10.68;;;4.38;;
55288;SDS011;41154;45.394;5.734;2024-03-22T06:29:05;7.78;;;4.32;;
55288;SDS011;41154;45.394;5.734;2024-03-22T06:31:32;6.85;;;4.18;;
55288;SDS011;41154;45.394;5.734;2024-03-22T06:33:57;6.13;;;4.25;;
55288;SDS011;41154;45.394;5.734;2024-03-22T06:36:28;6.97;;;5.22;;
55288;SDS011;41154;45.394;5.734;2024-03-22T06:38:54;9.60;;;6.63;;
55288;SDS011;41154;45.394;5.734;2024-03-22T06:41:19;13.52;;;8.07;;
55288;SDS011;41154;45.394;5.734;2024-03-22T06:43:45;12.93;;;8.48;;
55288;SDS011;41154;45.394;5.734;2024-03-22T06:46:11;13.68;;;7.13;;
55288;SDS011;41154;45.394;5.734;2024-03-22T06:48:37;11.23;;;7.80;;
55288;SDS011;41154;45.394;5.734;2024-03-22T06:51:02;10.25;;;6.95;;
55288;SDS011;41154;45.394;5.734;2024-03-22T06:53:28;17.17;;;7.65;;
55288;SDS011;41154;45.394;5.734;2024-03-22T06:55:54;10.68;;;6.18;;
55288;SDS011;41154;45.394;5.734;2024-03-22T06:58:19;10.13;;;6.15;;
55288;SDS011;41154;45.394;5.734;2024-03-22T07:00:45;7.82;;;5.30;;
55288;SDS011;41154;45.394;5.734;2024-03-22T07:03:10;9.60;;;4.40;;
55288;SDS011;41154;45.394;5.734;2024-03-22T07:05:36;6.90;;;4.25;;
55288;SDS011;41154;45.394;5.734;2024-03-22T07:08:02;8.95;;;4.35;;
55288;SDS011;41154;45.394;5.734;2024-03-22T07:10:27;11.52;;;3.78;;
55288;SDS011;41154;45.394;5.734;2024-03-22T07:12:56;12.10;;;4.88;;
55288;SDS011;41154;45.394;5.734;2024-03-22T07:15:23;9.75;;;4.43;;
55288;SDS011;41154;45.394;5.734;2024-03-22T07:17:48;8.48;;;4.55;;
55288;SDS011;41154;45.394;5.734;2024-03-22T07:20:14;7.93;;;3.90;;
55288;SDS011;41154;45.394;5.734;2024-03-22T07:22:40;6.78;;;3.90;;
55288;SDS011;41154;45.394;5.734;2024-03-22T07:25:05;6.03;;;3.67;;
55288;SDS011;41154;45.394;5.734;2024-03-22T07:27:31;5.80;;;3.90;;
55288;SDS011;41154;45.394;5.734;2024-03-22T07:29:57;7.50;;;3.83;;
55288;SDS011;41154;45.394;5.734;2024-03-22T07:32:22;7.00;;;4.68;;
55288;SDS011;41154;45.394;5.734;2024-03-22T07:34:48;6.18;;;4.13;;
55288;SDS011;41154;45.394;5.734;2024-03-22T07:37:14;7.18;;;4.00;;
55288;SDS011;41154;45.394;5.734;2024-03-22T07:39:39;7.40;;;4.30;;
55288;SDS011;41154;45.394;5.734;2024-03-22T07:42:05;6.47;;;3.60;;
55288;SDS011;41154;45.394;5.734;2024-03-22T07:44:30;5.40;;;4.13;;
55288;SDS011;41154;45.394;5.734;2024-03-22T07:46:56;7.15;;;5.80;;
55288;SDS011;41154;45.394;5.734;2024-03-22T07:49:21;6.15;;;3.03;;
55288;SDS011;41154;45.394;5.734;2024-03-22T07:51:47;5.22;;;2.50;;
55288;SDS011;41154;45.394;5.734;2024-03-22T07:54:12;5.55;;;2.08;;
55288;SDS011;41154;45.394;5.734;2024-03-22T07:56:38;2.90;;;2.30;;
55288;SDS011;41154;45.394;5.734;2024-03-22T07:59:03;4.82;;;2.13;;
55288;SDS011;41154;45.394;5.734;2024-03-22T08:01:30;3.50;;;2.40;;
55288;SDS011;41154;45.394;5.734;2024-03-22T08:03:55;4.05;;;1.98;;
55288;SDS011;41154;45.394;5.734;2024-03-22T08:06:21;3.17;;;1.98;;
55288;SDS011;41154;45.394;5.734;2024-03-22T08:08:46;3.15;;;1.67;;
55288;SDS011;41154;45.394;5.734;2024-03-22T08:11:12;3.13;;;1.80;;
55288;SDS011;41154;45.394;5.734;2024-03-22T08:13:37;2.47;;;1.88;;
55288;SDS011;41154;45.394;5.734;2024-03-22T08:16:03;3.97;;;1.95;;
55288;SDS011;41154;45.394;5.734;2024-03-22T08:18:29;3.78;;;1.60;;
55288;SDS011;41154;45.394;5.734;2024-03-22T08:20:55;4.43;;;1.65;;
55288;SDS011;41154;45.394;5.734;2024-03-22T08:23:20;4.70;;;1.85;;
55288;SDS011;41154;45.394;5.734;2024-03-22T08:25:48;1.85;;;1.23;;
55288;SDS011;41154;45.394;5.734;2024-03-22T08:28:14;2.08;;;1.38;;
55288;SDS011;41154;45.394;5.734;2024-03-22T08:30:41;4.43;;;1.30;;
55288;SDS011;41154;45.394;5.734;2024-03-22T08:33:09;4.95;;;1.58;;
55288;SDS011;41154;45.394;5.734;2024-03-22T08:35:35;3.95;;;1.75;;
55288;SDS011;41154;45.394;5.734;2024-03-22T08:38:00;3.97;;;1.60;;
55288;SDS011;41154;45.394;5.734;2024-03-22T08:40:26;6.30;;;1.67;;
55288;SDS011;41154;45.394;5.734;2024-03-22T08:42:52;4.15;;;1.50;;
55288;SDS011;41154;45.394;5.734;2024-03-22T08:45:19;2.90;;;1.67;;
55288;SDS011;41154;45.394;5.734;2024-03-22T08:47:44;4.18;;;1.75;;
55288;SDS011;41154;45.394;5.734;2024-03-22T08:50:13;6.32;;;1.67;;
55288;SDS011;41154;45.394;5.734;2024-03-22T08:52:38;3.05;;;1.50;;
55288;SDS011;41154;45.394;5.734;2024-03-22T08:55:04;2.92;;;1.60;;
55288;SDS011;41154;45.394;5.734;2024-03-22T08:57:32;2.58;;;1.58;;
55288;SDS011;41154;45.394;5.734;2024-03-22T08:59:57;2.30;;;1.60;;
55288;SDS011;41154;45.394;5.734;2024-03-22T09:02:23;7.28;;;1.50;;
55288;SDS011;41154;45.394;5.734;2024-03-22T09:04:49;2.88;;;1.40;;
55288;SDS011;41154;45.394;5.734;2024-03-22T09:07:14;2.88;;;1.30;;
55288;SDS011;41154;45.394;5.734;2024-03-22T09:09:40;3.17;;;1.50;;
55288;SDS011;41154;45.394;5.734;2024-03-22T09:12:06;2.88;;;1.63;;
55288;SDS011;41154;45.394;5.734;2024-03-22T09:14:32;2.88;;;1.38;;
55288;SDS011;41154;45.394;5.734;2024-03-22T09:16:57;3.72;;;1.33;;
55288;SDS011;41154;45.394;5.734;2024-03-22T09:19:23;3.83;;;1.70;;
55288;SDS011;41154;45.394;5.734;2024-03-22T09:21:48;4.80;;;1.52;;
55288;SDS011;41154;45.394;5.734;2024-03-22T09:24:14;3.85;;;1.50;;
55288;SDS011;41154;45.394;5.734;2024-03-22T09:26:39;1.85;;;1.42;;
55288;SDS011;41154;45.394;5.734;2024-03-22T09:29:05;3.72;;;1.45;;
55288;SDS011;41154;45.394;5.734;2024-03-22T09:31:30;5.45;;;1.50;;
55288;SDS011;41154;45.394;5.734;2024-03-22T09:33:57;3.13;;;1.38;;
55288;SDS011;41154;45.394;5.734;2024-03-22T09:36:24;4.47;;;1.30;;
55288;SDS011;41154;45.394;5.734;2024-03-22T09:38:50;3.85;;;1.17;;
55288;SDS011;41154;45.394;5.734;2024-03-22T09:41:15;4.80;;;1.38;;
55288;SDS011;41154;45.394;5.734;2024-03-22T09:43:43;4.07;;;1.17;;
55288;SDS011;41154;45.394;5.734;2024-03-22T09:46:10;3.85;;;1.30;;
55288;SDS011;41154;45.394;5.734;2024-03-22T09:48:35;3.78;;;0.90;;
55288;SDS011;41154;45.394;5.734;2024-03-22T09:51:01;1.83;;;1.10;;
55288;SDS011;41154;45.394;5.734;2024-03-22T09:53:27;1.98;;;1.05;;
55288;SDS011;41154;45.394;5.734;2024-03-22T09:55:55;2.28;;;1.27;;
55288;SDS011;41154;45.394;5.734;2024-03-22T09:58:23;3.88;;;1.40;;
55288;SDS011;41154;45.394;5.734;2024-03-22T10:00:48;2.30;;;1.50;;
55288;SDS011;41154;45.394;5.734;2024-03-22T10:03:14;4.82;;;1.98;;
55288;SDS011;41154;45.394;5.734;2024-03-22T10:05:40;7.55;;;3.67;;
55288;SDS011;41154;45.394;5.734;2024-03-22T10:08:07;7.43;;;3.90;;
55288;SDS011;41154;45.394;5.734;2024-03-22T10:10:33;5.80;;;3.38;;
55288;SDS011;41154;45.394;5.734;2024-03-22T10:13:03;6.78;;;3.30;;
55288;SDS011;41154;45.394;5.734;2024-03-22T10:15:30;4.95;;;2.38;;
55288;SDS011;41154;45.394;5.734;2024-03-22T10:17:59;9.07;;;2.60;;
55288;SDS011;41154;45.394;5.734;2024-03-22T10:20:25;5.65;;;2.65;;
55288;SDS011;41154;45.394;5.734;2024-03-22T10:22:57;6.40;;;3.30;;
55288;SDS011;41154;45.394;5.734;2024-03-22T10:25:27;7.47;;;3.20;;
55288;SDS011;41154;45.394;5.734;2024-03-22T10:27:56;9.88;;;4.13;;
55288;SDS011;41154;45.394;5.734;2024-03-22T10:30:23;5.50;;;2.97;;
55288;SDS011;41154;45.394;5.734;2024-03-22T10:32:49;6.80;;;3.03;;
55288;SDS011;41154;45.394;5.734;2024-03-22T10:35:15;6.60;;;3.85;;
55288;SDS011;41154;45.394;5.734;2024-03-22T10:37:41;6.05;;;3.42;;
55288;SDS011;41154;45.394;5.734;2024-03-22T10:40:08;7.05;;;3.42;;
55288;SDS011;41154;45.394;5.734;2024-03-22T10:42:41;9.05;;;3.78;;
55288;SDS011;41154;45.394;5.734;2024-03-22T10:45:09;6.30;;;3.70;;
55288;SDS011;41154;45.394;5.734;2024-03-22T10:47:36;6.22;;;3.30;;
55288;SDS011;41154;45.394;5.734;2024-03-22T10:50:11;5.75;;;3.38;;
55288;SDS011;41154;45.394;5.734;2024-03-22T10:55:03;7.50;;;3.38;;
55288;SDS011;41154;45.394;5.734;2024-03-22T10:57:29;5.25;;;2.72;;
55288;SDS011;41154;45.394;5.734;2024-03-22T10:59:56;6.15;;;2.65;;
55288;SDS011;41154;45.394;5.734;2024-03-22T11:02:25;3.88;;;2.30;;
55288;SDS011;41154;45.394;5.734;2024-03-22T11:04:56;6.22;;;2.63;;
55288;SDS011;41154;45.394;5.734;2024-03-22T11:07:22;6.97;;;2.45;;
55288;SDS011;41154;45.394;5.734;2024-03-22T11:09:55;6.50;;;2.63;;
55288;SDS011;41154;45.394;5.734;2024-03-22T11:12:23;4.68;;;2.22;;
55288;SDS011;41154;45.394;5.734;2024-03-22T11:14:50;5.53;;;2.85;;
55288;SDS011;41154;45.394;5.734;2024-03-22T11:17:17;7.43;;;2.72;;
55288;SDS011;41154;45.394;5.734;2024-03-22T11:19:42;5.18;;;2.83;;
55288;SDS011;41154;45.394;5.734;2024-03-22T11:22:08;5.55;;;2.97;;
55288;SDS011;41154;45.394;5.734;2024-03-22T11:24:33;5.05;;;2.55;;
55288;SDS011;41154;45.394;5.734;2024-03-22T11:26:59;5.00;;;2.75;;
55288;SDS011;41154;45.394;5.734;2024-03-22T11:29:24;5.85;;;2.40;;
55288;SDS011;41154;45.394;5.734;2024-03-22T11:31:50;5.95;;;2.40;;
55288;SDS011;41154;45.394;5.734;2024-03-22T11:34:15;4.18;;;2.38;;
55288;SDS011;41154;45.394;5.734;2024-03-22T11:36:41;5.53;;;2.28;;
55288;SDS011;41154;45.394;5.734;2024-03-22T11:39:06;4.65;;;2.20;;
55288;SDS011;41154;45.394;5.734;2024-03-22T11:41:33;7.18;;;2.33;;
55288;SDS011;41154;45.394;5.734;2024-03-22T11:43:59;3.58;;;2.00;;
55288;SDS011;41154;45.394;5.734;2024-03-22T11:46:25;3.35;;;2.00;;
55288;SDS011;41154;45.394;5.734;2024-03-22T11:48:54;4.95;;;1.70;;
55288;SDS011;41154;45.394;5.734;2024-03-22T11:51:20;4.22;;;1.80;;
55288;SDS011;41154;45.394;5.734;2024-03-22T11:53:49;5.05;;;1.73;;
55288;SDS011;41154;45.394;5.734;2024-03-22T11:56:17;2.67;;;1.75;;
55288;SDS011;41154;45.394;5.734;2024-03-22T11:58:42;3.90;;;1.65;;
55288;SDS011;41154;45.394;5.734;2024-03-22T12:01:09;1.83;;;1.25;;
55288;SDS011;41154;45.394;5.734;2024-03-22T12:03:34;2.80;;;1.75;;
55288;SDS011;41154;45.394;5.734;2024-03-22T12:06:00;3.65;;;1.88;;
55288;SDS011;41154;45.394;5.734;2024-03-22T12:08:26;2.70;;;1.88;;
55288;SDS011;41154;45.394;5.734;2024-03-22T12:10:51;3.35;;;1.80;;
55288;SDS011;41154;45.394;5.734;2024-03-22T12:13:17;3.10;;;1.85;;
55288;SDS011;41154;45.394;5.734;2024-03-22T12:15:42;4.18;;;1.83;;
55288;SDS011;41154;45.394;5.734;2024-03-22T12:18:08;2.50;;;1.77;;
55288;SDS011;41154;45.394;5.734;2024-03-22T12:20:33;3.55;;;1.95;;
55288;SDS011;41154;45.394;5.734;2024-03-22T12:22:59;5.28;;;2.35;;
55288;SDS011;41154;45.394;5.734;2024-03-22T12:25:24;4.45;;;2.15;;
55288;SDS011;41154;45.394;5.734;2024-03-22T12:27:50;5.05;;;1.95;;
55288;SDS011;41154;45.394;5.734;2024-03-22T12:30:16;2.83;;;1.77;;
55288;SDS011;41154;45.394;5.734;2024-03-22T12:32:41;3.50;;;1.88;;
55288;SDS011;41154;45.394;5.734;2024-03-22T12:35:08;5.35;;;1.90;;
55288;SDS011;41154;45.394;5.734;2024-03-22T12:37:33;2.50;;;1.60;;
55288;SDS011;41154;45.394;5.734;2024-03-22T12:39:59;3.45;;;1.70;;
55288;SDS011;41154;45.394;5.734;2024-03-22T12:42:25;2.80;;;1.50;;
55288;SDS011;41154;45.394;5.734;2024-03-22T12:44:50;4.78;;;1.80;;
55288;SDS011;41154;45.394;5.734;2024-03-22T12:47:17;2.70;;;1.63;;
55288;SDS011;41154;45.394;5.734;2024-03-22T12:49:43;2.55;;;1.40;;
55288;SDS011;41154;45.394;5.734;2024-03-22T12:52:08;3.25;;;1.48;;
55288;SDS011;41154;45.394;5.734;2024-03-22T12:54:34;7.78;;;1.80;;
55288;SDS011;41154;45.394;5.734;2024-03-22T12:56:59;4.38;;;1.77;;
55288;SDS011;41154;45.394;5.734;2024-03-22T12:59:25;3.20;;;1.80;;
55288;SDS011;41154;45.394;5.734;2024-03-22T13:01:50;3.17;;;1.42;;
55288;SDS011;41154;45.394;5.734;2024-03-22T13:04:16;4.13;;;1.60;;
55288;SDS011;41154;45.394;5.734;2024-03-22T13:06:43;5.07;;;1.70;;
55288;SDS011;41154;45.394;5.734;2024-03-22T13:09:08;6.05;;;1.92;;
55288;SDS011;41154;45.394;5.734;2024-03-22T13:11:35;3.08;;;1.80;;
55288;SDS011;41154;45.394;5.734;2024-03-22T13:14:00;4.50;;;1.65;;
55288;SDS011;41154;45.394;5.734;2024-03-22T13:16:26;2.92;;;1.60;;
55288;SDS011;41154;45.394;5.734;2024-03-22T13:18:51;5.50;;;2.15;;
55288;SDS011;41154;45.394;5.734;2024-03-22T13:21:17;5.32;;;1.85;;
55288;SDS011;41154;45.394;5.734;2024-03-22T13:23:42;3.95;;;1.85;;
55288;SDS011;41154;45.394;5.734;2024-03-22T13:26:08;2.90;;;1.60;;
55288;SDS011;41154;45.394;5.734;2024-03-22T13:28:33;2.70;;;1.63;;
55288;SDS011;41154;45.394;5.734;2024-03-22T13:31:01;5.90;;;1.63;;
55288;SDS011;41154;45.394;5.734;2024-03-22T13:33:29;5.35;;;1.58;;
55288;SDS011;41154;45.394;5.734;2024-03-22T13:35:55;3.28;;;1.70;;
55288;SDS011;41154;45.394;5.734;2024-03-22T13:38:21;3.33;;;1.88;;
55288;SDS011;41154;45.394;5.734;2024-03-22T13:40:56;4.13;;;2.00;;
55288;SDS011;41154;45.394;5.734;2024-03-22T13:43:25;2.97;;;1.85;;
55288;SDS011;41154;45.394;5.734;2024-03-22T13:45:51;2.83;;;1.48;;
55288;SDS011;41154;45.394;5.734;2024-03-22T13:48:23;3.35;;;1.75;;
55288;SDS011;41154;45.394;5.734;2024-03-22T13:50:53;3.58;;;1.50;;
55288;SDS011;41154;45.394;5.734;2024-03-22T13:53:19;2.92;;;1.50;;
55288;SDS011;41154;45.394;5.734;2024-03-22T13:55:47;2.70;;;1.67;;
55288;SDS011;41154;45.394;5.734;2024-03-22T13:58:14;2.45;;;1.70;;
55288;SDS011;41154;45.394;5.734;2024-03-22T14:00:40;3.33;;;1.55;;
55288;SDS011;41154;45.394;5.734;2024-03-22T14:03:05;2.35;;;1.50;;
55288;SDS011;41154;45.394;5.734;2024-03-22T14:05:31;3.80;;;1.63;;
55288;SDS011;41154;45.394;5.734;2024-03-22T14:07:57;3.55;;;1.60;;
55288;SDS011;41154;45.394;5.734;2024-03-22T14:10:23;2.80;;;1.50;;
55288;SDS011;41154;45.394;5.734;2024-03-22T14:12:52;5.35;;;1.65;;
55288;SDS011;41154;45.394;5.734;2024-03-22T14:15:17;4.28;;;2.00;;
55288;SDS011;41154;45.394;5.734;2024-03-22T14:17:43;2.55;;;1.90;;
55288;SDS011;41154;45.394;5.734;2024-03-22T14:20:09;3.90;;;2.00;;
55288;SDS011;41154;45.394;5.734;2024-03-22T14:22:40;5.47;;;2.33;;
55288;SDS011;41154;45.394;5.734;2024-03-22T14:25:05;3.40;;;2.22;;
55288;SDS011;41154;45.394;5.734;2024-03-22T14:27:31;3.53;;;1.80;;
55288;SDS011;41154;45.394;5.734;2024-03-22T14:29:58;3.95;;;2.28;;
55288;SDS011;41154;45.394;5.734;2024-03-22T14:32:24;3.00;;;1.67;;
55288;SDS011;41154;45.394;5.734;2024-03-22T14:34:52;4.95;;;1.42;;
55288;SDS011;41154;45.394;5.734;2024-03-22T14:37:17;2.72;;;1.80;;
55288;SDS011;41154;45.394;5.734;2024-03-22T14:39:43;4.68;;;1.50;;
55288;SDS011;41154;45.394;5.734;2024-03-22T14:42:08;2.35;;;1.65;;